createdAt,value
2022-10-08T00:00:44.360Z,91.8
2022-10-08T00:02:00.652Z,91.8
2022-10-08T00:03:16.943Z,91.8
2022-10-08T00:04:33.224Z,91.6
2022-10-08T00:05:49.530Z,91.4
2022-10-08T00:07:05.820Z,91.3
2022-10-08T00:08:22.104Z,91.2
2022-10-08T00:09:38.400Z,91.2
2022-10-08T00:10:54.692Z,91.1
2022-10-08T00:12:10.976Z,91
2022-10-08T00:13:27.269Z,91
2022-10-08T00:15:59.853Z,91
2022-10-08T00:17:15.161Z,90.8
2022-10-08T00:18:31.461Z,90.9
2022-10-08T00:19:47.761Z,90.9
2022-10-08T00:21:04.041Z,90.9
2022-10-08T00:22:20.348Z,90.9
2022-10-08T00:23:36.624Z,90.8
2022-10-08T00:24:52.934Z,90.8
2022-10-08T00:26:09.211Z,90.8
2022-10-08T00:27:25.501Z,90.9
2022-10-08T00:28:41.809Z,90.9
2022-10-08T00:29:58.091Z,90.9
2022-10-08T00:31:14.399Z,90.8
2022-10-08T00:32:30.689Z,90.9
2022-10-08T00:33:45.992Z,90.9
2022-10-08T00:35:02.290Z,91
2022-10-08T00:36:18.575Z,91
2022-10-08T00:37:34.871Z,91
2022-10-08T00:38:51.160Z,91
2022-10-08T00:40:07.453Z,90.9
2022-10-08T00:41:23.747Z,90.8
2022-10-08T00:42:40.043Z,90.8
2022-10-08T00:43:56.328Z,90.8
2022-10-08T00:45:12.613Z,90.7
2022-10-08T00:46:28.905Z,90.7
2022-10-08T00:47:45.209Z,90.7
2022-10-08T00:49:01.509Z,90.5
2022-10-08T00:50:16.805Z,90.5
2022-10-08T00:51:33.099Z,90.5
2022-10-08T00:52:49.402Z,90.3
2022-10-08T00:54:05.695Z,90.3
2022-10-08T00:55:21.971Z,90.2
2022-10-08T00:56:38.275Z,90.2
2022-10-08T00:57:54.559Z,90.2
2022-10-08T00:59:10.850Z,90
2022-10-08T01:00:27.157Z,90
2022-10-08T01:01:43.438Z,90
2022-10-08T01:02:59.724Z,90
2022-10-08T01:04:16.028Z,90
2022-10-08T01:06:48.612Z,90.2
2022-10-08T01:08:03.934Z,90.3
2022-10-08T01:09:20.213Z,90.3
2022-10-08T01:10:36.511Z,90.3
2022-10-08T01:11:52.803Z,90.3
2022-10-08T01:13:09.090Z,90.3
2022-10-08T01:14:25.402Z,90.4
2022-10-08T01:15:41.693Z,90.5
2022-10-08T01:16:57.974Z,90.6
2022-10-08T01:18:14.277Z,90.5
2022-10-08T01:19:30.562Z,90.6
2022-10-08T01:20:46.864Z,90.5
2022-10-08T01:22:03.139Z,90.6
2022-10-08T01:23:19.443Z,90.6
2022-10-08T01:24:34.756Z,90.7
2022-10-08T01:25:51.036Z,90.6
2022-10-08T01:27:07.323Z,90.7
2022-10-08T01:28:23.635Z,90.7
2022-10-08T01:29:39.925Z,90.7
2022-10-08T01:30:56.212Z,90.7
2022-10-08T01:32:12.507Z,90.6
2022-10-08T01:33:28.789Z,90.7
2022-10-08T01:34:45.079Z,90.8
2022-10-08T01:36:01.384Z,90.8
2022-10-08T01:37:17.675Z,91
2022-10-08T01:38:33.967Z,91.2
2022-10-08T01:39:50.260Z,91.3
2022-10-08T01:41:05.576Z,91.3
2022-10-08T01:42:21.856Z,91.3
2022-10-08T01:43:38.162Z,91.3
2022-10-08T01:44:54.454Z,91.3
2022-10-08T01:46:10.748Z,91.5
2022-10-08T01:47:27.020Z,91.6
2022-10-08T01:48:43.331Z,91.7
2022-10-08T01:49:59.617Z,91.7
2022-10-08T01:51:15.907Z,91.7
2022-10-08T01:52:32.211Z,91.7
2022-10-08T01:53:48.482Z,91.8
2022-10-08T01:55:04.785Z,91.8
2022-10-08T01:56:21.071Z,92
2022-10-08T01:57:36.394Z,92
2022-10-08T01:58:52.674Z,91.9
2022-10-08T02:00:08.967Z,91.9
2022-10-08T02:01:25.265Z,92
2022-10-08T02:02:41.557Z,92.1
2022-10-08T02:03:57.856Z,92.2
2022-10-08T02:05:14.140Z,92.2
2022-10-08T02:06:30.438Z,92.3
2022-10-08T02:07:46.731Z,92.4
2022-10-08T02:09:03.022Z,92.5
2022-10-08T02:10:19.320Z,92.4
2022-10-08T02:11:35.604Z,92.6
2022-10-08T02:12:51.900Z,92.6
2022-10-08T02:14:07.215Z,92.6
2022-10-08T02:15:23.492Z,92.6
2022-10-08T02:16:39.796Z,92.6
2022-10-08T02:17:56.087Z,92.7
2022-10-08T02:19:12.367Z,92.8
2022-10-08T02:20:28.657Z,92.7
2022-10-08T02:21:44.953Z,92.8
2022-10-08T02:23:01.263Z,92.7
2022-10-08T02:24:17.553Z,92.7
2022-10-08T02:25:33.843Z,92.7
2022-10-08T02:26:50.123Z,92.7
2022-10-08T02:28:06.426Z,92.8
2022-10-08T02:29:22.725Z,92.8
2022-10-08T02:30:38.028Z,92.8
2022-10-08T02:31:54.320Z,92.7
2022-10-08T02:33:10.610Z,92.8
2022-10-08T02:34:26.900Z,93
2022-10-08T02:35:43.200Z,92.9
2022-10-08T02:36:59.484Z,93
2022-10-08T02:38:15.776Z,92.9
2022-10-08T02:39:32.060Z,93
2022-10-08T02:40:48.362Z,93.3
2022-10-08T02:42:04.661Z,93.4
2022-10-08T02:43:20.954Z,93.7
2022-10-08T02:44:37.238Z,93.8
2022-10-08T02:45:53.541Z,94.3
2022-10-08T02:47:08.841Z,95
2022-10-08T02:48:25.139Z,95.1
2022-10-08T02:49:41.426Z,94.7
2022-10-08T02:50:57.713Z,94.5
2022-10-08T02:52:14.011Z,94.1
2022-10-08T02:53:30.305Z,94.3
2022-10-08T02:54:46.599Z,94.2
2022-10-08T02:56:02.895Z,94.3
2022-10-08T02:57:19.182Z,94.4
2022-10-08T02:58:35.477Z,94.2
2022-10-08T02:59:51.758Z,94.3
2022-10-08T03:01:08.061Z,94.3
2022-10-08T03:02:24.353Z,94.5
2022-10-08T03:03:39.658Z,94.8
2022-10-08T03:04:55.955Z,94.9
2022-10-08T03:06:12.244Z,94.8
2022-10-08T03:07:28.542Z,95
2022-10-08T03:08:44.836Z,94.8
2022-10-08T03:10:01.130Z,94.8
2022-10-08T03:11:17.410Z,94.8
2022-10-08T03:13:50.008Z,95.1
2022-10-08T03:15:06.288Z,95.1
2022-10-08T03:16:22.579Z,95
2022-10-08T03:17:38.888Z,95
2022-10-08T03:18:55.184Z,95
2022-10-08T03:20:10.487Z,95
2022-10-08T03:21:26.770Z,94.9
2022-10-08T03:22:43.079Z,94.9
2022-10-08T03:23:59.360Z,94.9
2022-10-08T03:25:15.655Z,95.1
2022-10-08T03:26:31.941Z,95.3
2022-10-08T03:27:48.230Z,95.7
2022-10-08T03:29:04.529Z,95.9
2022-10-08T03:30:20.817Z,95.9
2022-10-08T03:31:37.125Z,95.7
2022-10-08T03:32:53.414Z,95.8
2022-10-08T03:34:09.694Z,95.8
2022-10-08T03:35:25.990Z,95.8
2022-10-08T03:36:41.294Z,95.7
2022-10-08T03:37:57.593Z,95.5
2022-10-08T03:39:13.879Z,95.5
2022-10-08T03:40:30.180Z,96.3
2022-10-08T03:41:46.468Z,96.6
2022-10-08T03:43:02.773Z,96.4
2022-10-08T03:44:19.055Z,96.2
2022-10-08T03:45:35.356Z,95.9
2022-10-08T03:46:51.637Z,95.5
2022-10-08T03:48:07.942Z,95.7
2022-10-08T03:49:24.226Z,95.7
2022-10-08T03:50:40.514Z,95.5
2022-10-08T03:51:56.813Z,95.3
2022-10-08T03:53:12.127Z,95.2
2022-10-08T03:54:28.421Z,95
2022-10-08T03:55:44.713Z,95
2022-10-08T03:57:01.004Z,95.1
2022-10-08T03:58:17.282Z,95.1
2022-10-08T03:59:33.584Z,95.2
2022-10-08T04:00:49.883Z,95
2022-10-08T04:02:06.174Z,95
2022-10-08T04:03:22.465Z,95.1
2022-10-08T04:04:38.749Z,95.3
2022-10-08T04:05:55.043Z,95.7
2022-10-08T04:07:11.333Z,96.6
2022-10-08T04:08:27.630Z,97.2
2022-10-08T04:09:42.943Z,97.5
2022-10-08T04:10:59.239Z,97.5
2022-10-08T04:12:15.520Z,97.4
2022-10-08T04:13:30.830Z,97.3
2022-10-08T04:14:47.127Z,97.6
2022-10-08T04:16:03.420Z,97.5
2022-10-08T04:17:19.719Z,97.5
2022-10-08T04:18:36.003Z,97.5
2022-10-08T04:21:08.600Z,97.5
2022-10-08T04:22:24.894Z,97.9
2022-10-08T04:23:41.172Z,98.1
2022-10-08T04:24:57.463Z,98.1
2022-10-08T04:26:13.771Z,98.2
2022-10-08T04:27:30.067Z,98.2
2022-10-08T04:28:46.341Z,98
2022-10-08T04:30:01.651Z,98
2022-10-08T04:31:17.959Z,98
2022-10-08T04:32:34.234Z,98
2022-10-08T04:33:50.546Z,97.8
2022-10-08T04:35:06.831Z,97.8
2022-10-08T04:36:23.123Z,97.8
2022-10-08T04:37:39.405Z,97.8
2022-10-08T04:38:55.698Z,97.8
2022-10-08T04:40:11.999Z,97.8
2022-10-08T04:41:28.287Z,97.7
2022-10-08T04:42:44.582Z,97.7
2022-10-08T04:44:00.885Z,97.8
2022-10-08T04:45:17.182Z,97.8
2022-10-08T04:46:32.474Z,97.4
2022-10-08T04:47:48.772Z,97.4
2022-10-08T04:49:05.062Z,97.3
2022-10-08T04:50:21.299Z,97.4
2022-10-08T04:51:37.561Z,97.8
2022-10-08T04:52:53.794Z,98.1
2022-10-08T04:54:10.028Z,98.4
2022-10-08T04:55:26.273Z,98.5
2022-10-08T04:56:42.510Z,98.5
2022-10-08T04:57:58.750Z,98.4
2022-10-08T04:59:14.990Z,98.3
2022-10-08T05:00:31.232Z,98.3
2022-10-08T05:01:47.475Z,98.4
2022-10-08T05:03:02.000Z,98.7
2022-10-08T05:04:18.970Z,99
2022-10-08T05:05:35.197Z,99.1
2022-10-08T05:06:51.436Z,99.1
2022-10-08T05:08:07.677Z,99.1
2022-10-08T05:09:23.923Z,99
2022-10-08T05:10:40.170Z,98.7
2022-10-08T05:11:56.389Z,98.4
2022-10-08T05:13:12.630Z,98.3
2022-10-08T05:14:28.870Z,98
2022-10-08T05:15:45.119Z,97.7
2022-10-08T05:17:01.344Z,97.6
2022-10-08T05:18:17.582Z,97.3
2022-10-08T05:19:32.852Z,97.2
2022-10-08T05:20:49.077Z,96.9
2022-10-08T05:22:05.315Z,96.9
2022-10-08T05:23:21.559Z,96.7
2022-10-08T05:24:37.800Z,96.6
2022-10-08T05:25:54.035Z,96.4
2022-10-08T05:27:10.273Z,96.4
2022-10-08T05:28:26.518Z,96.2
2022-10-08T05:29:42.756Z,96.1
2022-10-08T05:30:59.002Z,95.9
2022-10-08T05:32:15.241Z,95.6
2022-10-08T05:34:47.716Z,95.2
2022-10-08T05:36:02.967Z,95
2022-10-08T05:37:19.199Z,94.8
2022-10-08T05:38:35.437Z,94.5
2022-10-08T05:39:51.687Z,94.3
2022-10-08T05:41:07.923Z,94.3
2022-10-08T05:42:24.162Z,93.7
2022-10-08T05:43:40.398Z,93.5
2022-10-08T05:44:56.636Z,93.2
2022-10-08T05:46:12.884Z,93.5
2022-10-08T05:47:29.103Z,93.2
2022-10-08T05:48:45.348Z,93
2022-10-08T05:50:01.583Z,92.7
2022-10-08T05:51:17.836Z,92.7
2022-10-08T05:52:33.073Z,92.6
2022-10-08T05:53:49.313Z,92.3
2022-10-08T05:55:05.566Z,92.2
2022-10-08T05:56:21.789Z,92
2022-10-08T05:57:38.030Z,91.5
2022-10-08T05:58:54.266Z,91.3
2022-10-08T06:00:10.503Z,91.2
2022-10-08T06:01:26.744Z,91
2022-10-08T06:02:42.983Z,90.9
2022-10-08T06:03:59.229Z,90.7
2022-10-08T06:05:15.477Z,90.7
2022-10-08T06:06:31.701Z,90.5
2022-10-08T06:07:47.939Z,90.4
2022-10-08T06:09:03.205Z,90.5
2022-10-08T06:11:35.681Z,90.4
2022-10-08T06:12:51.918Z,90.3
2022-10-08T06:14:08.159Z,90.5
2022-10-08T06:15:24.385Z,90.2
2022-10-08T06:16:40.627Z,90.1
2022-10-08T06:17:56.860Z,89.9
2022-10-08T06:19:13.112Z,89.6
2022-10-08T06:20:29.345Z,89.6
2022-10-08T06:21:45.580Z,89.6
2022-10-08T06:23:01.833Z,89.1
2022-10-08T06:24:18.067Z,89.3
2022-10-08T06:25:33.323Z,89
2022-10-08T06:26:49.545Z,89.2
2022-10-08T06:28:05.804Z,89.3
2022-10-08T06:29:22.041Z,88.6
2022-10-08T06:30:38.273Z,88.8
2022-10-08T06:31:54.505Z,88.6
2022-10-08T06:33:10.749Z,88.3
2022-10-08T06:34:26.990Z,88.1
2022-10-08T06:35:43.228Z,88.3
2022-10-08T06:36:59.467Z,87.8
2022-10-08T06:38:15.712Z,87.5
2022-10-08T06:39:31.940Z,87.4
2022-10-08T06:40:48.173Z,87.3
2022-10-08T06:42:03.433Z,87.1
2022-10-08T06:43:19.666Z,87
2022-10-08T06:44:35.905Z,87
2022-10-08T06:45:52.144Z,87
2022-10-08T06:47:08.384Z,87.1
2022-10-08T06:48:24.620Z,87.2
2022-10-08T06:49:40.867Z,87.2
2022-10-08T06:50:57.097Z,87.1
2022-10-08T06:52:13.337Z,86.6
2022-10-08T06:53:29.575Z,86.1
2022-10-08T06:54:45.825Z,86.2
2022-10-08T06:56:02.050Z,86.1
2022-10-08T06:57:18.297Z,85.8
2022-10-08T06:58:33.551Z,85.7
2022-10-08T06:59:49.788Z,85.3
2022-10-08T07:01:06.037Z,85.3
2022-10-08T07:02:22.265Z,85.3
2022-10-08T07:03:38.504Z,85.3
2022-10-08T07:04:54.741Z,85
2022-10-08T07:06:10.974Z,85
2022-10-08T07:07:27.219Z,84
2022-10-08T07:08:43.449Z,84.1
2022-10-08T07:09:59.690Z,83.9
2022-10-08T07:11:15.944Z,83.9
2022-10-08T07:12:32.174Z,83.3
2022-10-08T07:13:48.000Z,83.4
2022-10-08T07:15:03.671Z,83.5
2022-10-08T07:16:19.904Z,83.3
2022-10-08T07:17:36.138Z,83.3
2022-10-08T07:18:52.390Z,83.2
2022-10-08T07:20:08.612Z,83.5
2022-10-08T07:21:24.862Z,83.8
2022-10-08T07:22:41.104Z,83.3
2022-10-08T07:23:57.329Z,83.4
2022-10-08T07:25:13.578Z,83.4
2022-10-08T07:26:29.811Z,83.3
2022-10-08T07:27:46.061Z,83.2
2022-10-08T07:29:02.285Z,82.9
2022-10-08T07:30:18.522Z,82.9
2022-10-08T07:31:33.788Z,83.1
2022-10-08T07:32:50.023Z,82.3
2022-10-08T07:34:06.260Z,82.6
2022-10-08T07:35:22.498Z,82.1
2022-10-08T07:36:38.750Z,82
2022-10-08T07:37:54.978Z,81.9
2022-10-08T07:39:11.209Z,82.3
2022-10-08T07:40:27.462Z,81.7
2022-10-08T07:41:43.693Z,81.5
2022-10-08T07:42:59.923Z,81.3
2022-10-08T07:44:16.168Z,81.4
2022-10-08T07:45:32.420Z,81.3
2022-10-08T07:46:48.645Z,80.6
2022-10-08T07:48:03.895Z,80.2
2022-10-08T07:49:20.131Z,80
2022-10-08T07:50:36.383Z,79.2
2022-10-08T07:51:52.619Z,79.4
2022-10-08T07:53:08.846Z,79.1
2022-10-08T07:54:25.093Z,78.2
2022-10-08T07:55:41.337Z,77.3
2022-10-08T07:56:57.578Z,77.3
2022-10-08T07:58:13.810Z,77.5
2022-10-08T07:59:30.052Z,75
2022-10-08T08:00:46.285Z,75.2
2022-10-08T08:02:02.524Z,74.7
2022-10-08T08:03:18.762Z,73.9
2022-10-08T08:04:34.010Z,73.3
2022-10-08T08:05:50.251Z,71.8
2022-10-08T08:07:06.492Z,71.6
2022-10-08T08:08:22.737Z,71
2022-10-08T08:09:38.971Z,69.3
2022-10-08T08:10:55.210Z,68.6
2022-10-08T08:12:11.446Z,68.5
2022-10-08T08:13:27.695Z,69.1
2022-10-08T08:14:43.922Z,68.9
2022-10-08T08:16:00.159Z,69.6
2022-10-08T08:17:16.410Z,69.6
2022-10-08T08:18:32.647Z,68.2
2022-10-08T08:19:48.885Z,68.4
2022-10-08T08:21:04.141Z,66.9
2022-10-08T08:22:20.390Z,67
2022-10-08T08:23:36.619Z,65.8
2022-10-08T08:24:52.865Z,65.2
2022-10-08T08:26:09.089Z,64.3
2022-10-08T08:27:25.342Z,63.9
2022-10-08T08:28:40.596Z,63.6
2022-10-08T08:29:56.833Z,62.3
2022-10-08T08:31:13.077Z,62
2022-10-08T08:32:29.313Z,60.5
2022-10-08T08:33:45.544Z,60
2022-10-08T08:35:01.796Z,59.1
2022-10-08T08:36:18.024Z,58.9
2022-10-08T08:37:34.271Z,59.1
2022-10-08T08:38:50.495Z,59.4
2022-10-08T08:40:06.749Z,58.7
2022-10-08T08:41:22.977Z,58.2
2022-10-08T08:42:39.219Z,56
2022-10-08T08:43:55.464Z,56.2
2022-10-08T08:45:10.722Z,54.6
2022-10-08T08:46:26.948Z,53.8
2022-10-08T08:47:43.193Z,54.7
2022-10-08T08:48:59.427Z,55.8
2022-10-08T08:50:15.658Z,54.4
2022-10-08T08:51:31.908Z,54.2
2022-10-08T08:52:48.143Z,54.5
2022-10-08T08:54:04.375Z,55.2
2022-10-08T08:55:20.616Z,57.5
2022-10-08T08:56:36.847Z,57.8
2022-10-08T08:57:53.088Z,55.7
2022-10-08T08:59:09.332Z,54
2022-10-08T09:00:25.580Z,54
2022-10-08T09:01:40.820Z,53.9
2022-10-08T09:02:57.070Z,54.1
2022-10-08T09:04:13.309Z,54.7
2022-10-08T09:05:29.535Z,53.3
2022-10-08T09:06:45.770Z,54.9
2022-10-08T09:08:02.022Z,54.6
2022-10-08T09:09:18.264Z,53.7
2022-10-08T09:10:34.488Z,52.9
2022-10-08T09:11:50.737Z,52.5
2022-10-08T09:13:06.981Z,53.3
2022-10-08T09:14:23.211Z,53.7
2022-10-08T09:15:39.440Z,54.7
2022-10-08T09:16:55.683Z,54.7
2022-10-08T09:18:10.949Z,54.1
2022-10-08T09:19:27.186Z,54.5
2022-10-08T09:20:43.426Z,55.4
2022-10-08T09:21:59.655Z,55.5
2022-10-08T09:23:15.901Z,54.3
2022-10-08T09:24:32.144Z,54
2022-10-08T09:25:48.372Z,53.9
2022-10-08T09:27:04.620Z,53.2
2022-10-08T09:28:20.847Z,53.5
2022-10-08T09:29:37.096Z,53.6
2022-10-08T09:30:53.319Z,52.8
2022-10-08T09:32:09.574Z,53
2022-10-08T09:33:25.811Z,52.6
2022-10-08T09:34:41.057Z,53.2
2022-10-08T09:35:57.295Z,53.4
2022-10-08T09:37:13.537Z,53.8
2022-10-08T09:38:29.775Z,54.9
2022-10-08T09:39:46.012Z,53.7
2022-10-08T09:42:18.499Z,53
2022-10-08T09:43:34.729Z,53.7
2022-10-08T09:44:50.972Z,54.3
2022-10-08T09:46:07.206Z,54.1
2022-10-08T09:47:23.452Z,53.1
2022-10-08T09:48:39.690Z,52.9
2022-10-08T09:49:55.922Z,52.5
2022-10-08T09:51:11.186Z,53.2
2022-10-08T09:52:27.411Z,52.3
2022-10-08T09:54:59.893Z,52.2
2022-10-08T09:56:16.126Z,52.2
2022-10-08T09:57:32.368Z,51.8
2022-10-08T09:58:48.604Z,51
2022-10-08T10:00:04.836Z,51.9
2022-10-08T10:01:21.080Z,49.9
2022-10-08T10:02:37.332Z,50.4
2022-10-08T10:03:53.563Z,50.4
2022-10-08T10:05:09.795Z,52.5
2022-10-08T10:06:26.037Z,53.1
2022-10-08T10:07:41.294Z,53.2
2022-10-08T10:08:57.523Z,53.8
2022-10-08T10:10:13.779Z,53.2
2022-10-08T10:11:29.999Z,51.3
2022-10-08T10:12:46.242Z,50.8
2022-10-08T10:14:02.490Z,51.2
2022-10-08T10:15:18.719Z,50.2
2022-10-08T10:16:34.963Z,50.8
2022-10-08T10:17:51.197Z,51
2022-10-08T10:19:07.439Z,51.4
2022-10-08T10:20:23.667Z,52.6
2022-10-08T10:21:39.915Z,51.7
2022-10-08T10:22:56.144Z,52.3
2022-10-08T10:24:11.415Z,51.2
2022-10-08T10:25:27.638Z,52.7
2022-10-08T10:26:43.894Z,51.3
2022-10-08T10:28:00.127Z,50
2022-10-08T10:29:16.357Z,51.3
2022-10-08T10:30:32.600Z,50.8
2022-10-08T10:31:48.829Z,50.3
2022-10-08T10:33:05.087Z,51.1
2022-10-08T10:34:21.319Z,51.1
2022-10-08T10:35:37.551Z,49.7
2022-10-08T10:36:53.784Z,51.3
2022-10-08T10:38:10.042Z,51
2022-10-08T10:39:26.267Z,52.4
2022-10-08T10:40:41.518Z,53.9
2022-10-08T10:41:57.758Z,52.7
2022-10-08T10:43:14.004Z,52.6
2022-10-08T10:44:30.232Z,53.5
2022-10-08T10:45:46.482Z,54.7
2022-10-08T10:47:02.726Z,55.5
2022-10-08T10:48:18.961Z,54.5
2022-10-08T10:49:35.204Z,56
2022-10-08T10:50:51.423Z,57.1
2022-10-08T10:52:07.677Z,58.4
2022-10-08T10:53:23.906Z,59
2022-10-08T10:54:40.143Z,60
2022-10-08T10:55:56.380Z,60.4
2022-10-08T10:57:11.638Z,60.1
2022-10-08T10:58:27.884Z,61.7
2022-10-08T11:01:00.351Z,61.2
2022-10-08T11:02:16.588Z,61.9
2022-10-08T11:03:32.838Z,61.6
2022-10-08T11:04:49.064Z,61.3
2022-10-08T11:06:05.320Z,62.1
2022-10-08T11:07:21.541Z,62.6
2022-10-08T11:08:37.791Z,63.2
2022-10-08T11:09:54.026Z,61.5
2022-10-08T11:11:10.257Z,61.5
2022-10-08T11:12:26.506Z,61.3
2022-10-08T11:13:41.761Z,62.8
2022-10-08T11:14:58.002Z,63.5
2022-10-08T11:16:14.242Z,64.1
2022-10-08T11:17:30.468Z,64.7
2022-10-08T11:18:46.702Z,65.4
2022-10-08T11:20:02.950Z,64.6
2022-10-08T11:21:19.198Z,65.8
2022-10-08T11:22:35.436Z,65.8
2022-10-08T11:23:51.655Z,65.8
2022-10-08T11:25:07.894Z,66.2
2022-10-08T11:26:24.137Z,66.2
2022-10-08T11:27:40.379Z,65.4
2022-10-08T11:28:56.608Z,66.8
2022-10-08T11:30:11.876Z,66.4
2022-10-08T11:31:28.105Z,65.7
2022-10-08T11:32:44.345Z,67
2022-10-08T11:34:00.585Z,67.3
2022-10-08T11:35:16.822Z,68.1
2022-10-08T11:36:33.071Z,69
2022-10-08T11:37:49.306Z,69.8
2022-10-08T11:39:05.532Z,69.8
2022-10-08T11:40:21.772Z,70.1
2022-10-08T11:41:38.018Z,70.6
2022-10-08T11:42:54.248Z,70.9
2022-10-08T11:44:10.496Z,70.9
2022-10-08T11:45:26.728Z,71.7
2022-10-08T11:46:41.979Z,71.3
2022-10-08T11:47:58.226Z,70.8
2022-10-08T11:49:14.471Z,71.4
2022-10-08T11:50:30.710Z,71.5
2022-10-08T11:51:46.933Z,71.7
2022-10-08T11:53:03.184Z,71.9
2022-10-08T11:54:19.412Z,71.8
2022-10-08T11:55:35.664Z,72.3
2022-10-08T11:56:51.897Z,71.7
2022-10-08T11:58:08.134Z,72
2022-10-08T11:59:24.363Z,72.7
2022-10-08T12:00:40.613Z,72.3
2022-10-08T12:01:56.855Z,72.1
2022-10-08T12:03:12.116Z,72.1
2022-10-08T12:04:28.341Z,72.4
2022-10-08T12:05:44.576Z,72.7
2022-10-08T12:07:00.822Z,73.3
2022-10-08T12:08:17.054Z,72.4
2022-10-08T12:09:33.304Z,72.5
2022-10-08T12:10:49.541Z,73
2022-10-08T12:12:05.770Z,71.8
2022-10-08T12:13:22.018Z,72.1
2022-10-08T12:14:38.245Z,71.8
2022-10-08T12:15:54.496Z,70.4
2022-10-08T12:17:10.729Z,70.9
2022-10-08T12:18:26.971Z,71.1
2022-10-08T12:19:42.230Z,71.5
2022-10-08T12:20:58.451Z,71.9
2022-10-08T12:22:14.698Z,71.9
2022-10-08T12:23:30.936Z,71.9
2022-10-08T12:24:47.167Z,72.5
2022-10-08T12:26:03.411Z,72.5
2022-10-08T12:27:19.661Z,72.7
2022-10-08T12:28:35.883Z,73
2022-10-08T12:29:52.122Z,73.2
2022-10-08T12:31:08.379Z,73.1
2022-10-08T12:32:24.602Z,73.8
2022-10-08T12:33:40.848Z,73.9
2022-10-08T12:34:57.087Z,73.7
2022-10-08T12:36:12.340Z,73.7
2022-10-08T12:37:28.572Z,73.5
2022-10-08T12:38:44.822Z,73.9
2022-10-08T12:40:01.058Z,72.8
2022-10-08T12:41:17.302Z,72.7
2022-10-08T12:42:33.532Z,72.7
2022-10-08T12:43:48.799Z,72.7
2022-10-08T12:45:05.021Z,72.7
2022-10-08T12:46:21.274Z,71.7
2022-10-08T12:47:37.500Z,72.2
2022-10-08T12:48:53.749Z,71.9
2022-10-08T12:50:09.977Z,72.2
2022-10-08T12:51:26.226Z,72.1
2022-10-08T12:52:42.457Z,72.2
2022-10-08T12:53:58.691Z,72.1
2022-10-08T12:55:14.935Z,71.5
2022-10-08T12:56:31.182Z,72.1
2022-10-08T12:57:47.407Z,72.2
2022-10-08T12:59:03.660Z,72
2022-10-08T13:00:18.897Z,71.4
2022-10-08T13:01:35.151Z,71.8
2022-10-08T13:02:51.377Z,72.3
2022-10-08T13:04:07.632Z,71.9
2022-10-08T13:05:23.856Z,71.5
2022-10-08T13:06:40.097Z,71.5
2022-10-08T13:07:56.330Z,71.5
2022-10-08T13:09:12.574Z,71.7
2022-10-08T13:10:28.807Z,72.1
2022-10-08T13:11:45.055Z,71.8
2022-10-08T13:13:01.301Z,71.3
2022-10-08T13:14:17.533Z,71
2022-10-08T13:15:33.760Z,71.5
2022-10-08T13:16:49.030Z,71.6
2022-10-08T13:18:05.265Z,72
2022-10-08T13:19:21.504Z,72.3
2022-10-08T13:20:37.744Z,73
2022-10-08T13:21:53.982Z,72.7
2022-10-08T13:23:10.226Z,72.4
2022-10-08T13:24:26.452Z,72.8
2022-10-08T13:25:42.700Z,71.8
2022-10-08T13:26:58.936Z,71.9
2022-10-08T13:28:15.172Z,72.4
2022-10-08T13:29:31.413Z,72.8
2022-10-08T13:30:47.655Z,72.7
2022-10-08T13:32:03.895Z,73.3
2022-10-08T13:33:19.136Z,73.3
2022-10-08T13:34:35.371Z,73.5
2022-10-08T13:35:51.628Z,73.5
2022-10-08T13:37:07.852Z,73.9
2022-10-08T13:38:24.087Z,74.4
2022-10-08T13:39:40.330Z,74.4
2022-10-08T13:40:56.573Z,74
2022-10-08T13:42:12.816Z,73.8
2022-10-08T13:43:29.049Z,73.5
2022-10-08T13:44:45.294Z,74.2
2022-10-08T13:46:01.537Z,73.9
2022-10-08T13:47:17.771Z,72.4
2022-10-08T13:48:34.010Z,71.4
2022-10-08T13:49:49.255Z,72.2
2022-10-08T13:51:05.497Z,71.7
2022-10-08T13:52:21.729Z,72
2022-10-08T13:53:37.984Z,72.3
2022-10-08T13:54:54.222Z,73
2022-10-08T13:56:10.452Z,73.5
2022-10-08T13:57:26.688Z,71.8
2022-10-08T13:58:42.918Z,71.8
2022-10-08T13:59:59.173Z,71.3
2022-10-08T14:01:15.414Z,71.2
2022-10-08T14:02:31.652Z,70.6
2022-10-08T14:03:47.884Z,70
2022-10-08T14:05:04.119Z,69.5
2022-10-08T14:06:19.370Z,68.8
2022-10-08T14:07:35.615Z,67.9
2022-10-08T14:08:51.857Z,69.2
2022-10-08T14:10:08.097Z,69
2022-10-08T14:11:24.328Z,69.6
2022-10-08T14:12:40.573Z,68.9
2022-10-08T14:13:56.797Z,68.7
2022-10-08T14:15:13.049Z,70.3
2022-10-08T14:16:29.277Z,70.4
2022-10-08T14:17:45.512Z,70.8
2022-10-08T14:19:01.757Z,69.8
2022-10-08T14:20:17.996Z,70.5
2022-10-08T14:21:34.227Z,71.2
2022-10-08T14:22:49.492Z,71.4
2022-10-08T14:24:05.727Z,71.2
2022-10-08T14:25:21.960Z,71.4
2022-10-08T14:26:38.209Z,72.3
2022-10-08T14:27:54.454Z,71.7
2022-10-08T14:29:10.682Z,72
2022-10-08T14:30:26.930Z,72.5
2022-10-08T14:31:43.161Z,73.9
2022-10-08T14:32:59.392Z,74
2022-10-08T14:34:15.645Z,73.8
2022-10-08T14:35:31.870Z,74
2022-10-08T14:36:48.108Z,74
2022-10-08T14:38:04.359Z,74.2
2022-10-08T14:39:19.602Z,75
2022-10-08T14:40:35.848Z,75.2
2022-10-08T14:41:52.075Z,75.5
2022-10-08T14:43:08.321Z,74.6
2022-10-08T14:44:24.552Z,74.5
2022-10-08T14:45:40.810Z,74.4
2022-10-08T14:46:57.048Z,75.1
2022-10-08T14:48:13.272Z,75.5
2022-10-08T14:49:29.526Z,75.2
2022-10-08T14:50:45.750Z,75.5
2022-10-08T14:52:01.989Z,75.5
2022-10-08T14:53:18.234Z,75.7
2022-10-08T14:54:34.469Z,75.3
2022-10-08T14:55:49.734Z,75.5
2022-10-08T14:57:05.961Z,74.6
2022-10-08T14:58:22.206Z,74.6
2022-10-08T14:59:38.443Z,74.7
2022-10-08T15:00:54.676Z,74.3
2022-10-08T15:02:10.908Z,74.2
2022-10-08T15:03:27.162Z,74.1
2022-10-08T15:04:43.387Z,74.3
2022-10-08T15:05:59.623Z,73.7
2022-10-08T15:07:15.879Z,72.3
2022-10-08T15:08:32.122Z,71
2022-10-08T15:09:48.362Z,70.8
2022-10-08T15:11:04.602Z,70.5
2022-10-08T15:12:19.860Z,70.4
2022-10-08T15:13:36.093Z,71.1
2022-10-08T15:14:52.337Z,70.5
2022-10-08T15:16:08.566Z,70.5
2022-10-08T15:17:24.798Z,71.7
2022-10-08T15:19:57.280Z,72.1
2022-10-08T15:21:13.520Z,71.8
2022-10-08T15:22:29.767Z,71.9
2022-10-08T15:23:46.003Z,73
2022-10-08T15:25:02.238Z,72.7
2022-10-08T15:26:18.475Z,73.3
2022-10-08T15:27:34.718Z,73.7
2022-10-08T15:28:49.968Z,74.3
2022-10-08T15:30:06.212Z,73.9
2022-10-08T15:31:22.447Z,74.9
2022-10-08T15:32:38.693Z,74.1
2022-10-08T15:33:54.914Z,74.6
2022-10-08T15:35:11.165Z,74.6
2022-10-08T15:36:27.403Z,73.9
2022-10-08T15:37:43.631Z,74.4
2022-10-08T15:38:59.880Z,74.2
2022-10-08T15:40:16.110Z,73.9
2022-10-08T15:41:32.360Z,74
2022-10-08T15:42:48.583Z,73.9
2022-10-08T15:44:04.833Z,74.3
2022-10-08T15:45:20.093Z,74.8
2022-10-08T15:46:36.330Z,75.1
2022-10-08T15:47:52.559Z,75.1
2022-10-08T15:49:08.790Z,75.6
2022-10-08T15:50:25.028Z,75.4
2022-10-08T15:51:41.272Z,75.5
2022-10-08T15:52:57.511Z,75.4
2022-10-08T15:54:13.754Z,76.1
2022-10-08T15:55:29.986Z,76.2
2022-10-08T15:56:46.227Z,76.1
2022-10-08T15:58:02.465Z,76.5
2022-10-08T15:59:18.699Z,76.8
2022-10-08T16:00:34.941Z,77
2022-10-08T16:01:50.204Z,77.1
2022-10-08T16:03:06.433Z,77.3
2022-10-08T16:04:22.679Z,77.2
2022-10-08T16:05:38.911Z,77.3
2022-10-08T16:06:55.158Z,77.4
2022-10-08T16:08:11.395Z,78.1
2022-10-08T16:09:27.633Z,78
2022-10-08T16:10:43.865Z,78
2022-10-08T16:12:00.109Z,78.2
2022-10-08T16:13:16.350Z,78
2022-10-08T16:14:32.575Z,78.2
2022-10-08T16:15:48.818Z,78
2022-10-08T16:17:05.054Z,78
2022-10-08T16:18:20.323Z,78.2
2022-10-08T16:19:36.546Z,78.1
2022-10-08T16:20:52.788Z,78.2
2022-10-08T16:22:09.030Z,78.4
2022-10-08T16:23:25.267Z,78.4
2022-10-08T16:24:41.514Z,78.5
2022-10-08T16:25:57.741Z,78.9
2022-10-08T16:27:13.983Z,79.2
2022-10-08T16:28:30.218Z,79.1
2022-10-08T16:29:46.452Z,79.3
2022-10-08T16:31:02.694Z,79.3
2022-10-08T16:32:18.939Z,79.6
2022-10-08T16:33:35.179Z,79.3
2022-10-08T16:34:50.440Z,79.6
2022-10-08T16:36:06.679Z,79.4
2022-10-08T16:37:22.899Z,79
2022-10-08T16:38:39.145Z,79.4
2022-10-08T16:39:55.389Z,79.2
2022-10-08T16:41:11.615Z,79
2022-10-08T16:42:27.852Z,78.7
2022-10-08T16:43:44.100Z,78.2
2022-10-08T16:45:00.331Z,78.3
2022-10-08T16:46:16.586Z,78.5
2022-10-08T16:47:32.808Z,78.1
2022-10-08T16:48:49.063Z,77.9
2022-10-08T16:50:05.285Z,77.6
2022-10-08T16:51:20.538Z,77.2
2022-10-08T16:52:36.783Z,77.5
2022-10-08T16:53:53.019Z,77.3
2022-10-08T16:55:09.256Z,77.9
2022-10-08T16:56:25.493Z,77
2022-10-08T16:57:41.734Z,77.3
2022-10-08T16:58:56.993Z,77.5
2022-10-08T17:00:13.290Z,77.3
2022-10-08T17:01:29.536Z,77.3
2022-10-08T17:02:45.758Z,78.1
2022-10-08T17:04:02.007Z,78.4
2022-10-08T17:05:18.300Z,78.1
2022-10-08T17:06:34.585Z,77.9
2022-10-08T17:07:50.876Z,78.3
2022-10-08T17:09:07.174Z,77.3
2022-10-08T17:10:23.468Z,77.3
2022-10-08T17:11:39.762Z,77.8
2022-10-08T17:12:56.062Z,77.6
2022-10-08T17:14:12.349Z,77.6
2022-10-08T17:15:27.649Z,77.9